Overview Statistics Trail Chart Weather Telemetry Raw packets
 

This is the latest recevied weather packets stored in our database for station/object SP9WPN-12. If no packets are shown the sender has not sent any weather packets the latest 10 day(s).

<< 1 2 3 4 >>
Time Temp. Humidity Pressure Rain* Wind** Luminosity Snow
1788571484 15.56° C 96% 1014.5 hPa - - - -
1788570886 16.11° C 95% 1014.7 hPa - - - -
1788570283 16.11° C 94% 1014.8 hPa - - - -
1788569686 16.11° C 92% 1014.8 hPa - - - -
1788569088 17.22° C 81% 1014.7 hPa - - - -
1788568491 17.78° C 78% 1014.1 hPa - - - -
1788567892 17.78° C 77% 1014.1 hPa - - - -
1788567294 18.33° C 75% 1013.8 hPa - - - -
1788566696 18.33° C 73% 1013.8 hPa - - - -
1788566099 18.33° C 72% 1013.7 hPa - - - -
1788565500 18.89° C 71% 1013.4 hPa - - - -
1788564305 18.89° C 70% 1013.5 hPa - - - -
1788563707 19.44° C 70% 1013.1 hPa - - - -
1788563110 19.44° C 68% 1013 hPa - - - -
1788562512 19.44° C 69% 1013 hPa - - - -
1788561914 20° C 68% 1012.7 hPa - - - -
1788561317 20° C 71% 1012.6 hPa - - - -
1788560720 20° C 72% 1012.3 hPa - - - -
1788560122 20° C 71% 1011.9 hPa - - - -
1788559525 21.11° C 69% 1012 hPa - - - -
1788558927 21.67° C 70% 1011.5 hPa - - - -
1788558329 22.22° C 69% 1011.2 hPa - - - -
1788557731 22.78° C 67% 1010.9 hPa - - - -
1788557133 23.33° C 64% 1010.7 hPa - - - -
1788556535 23.33° C 63% 1009.4 hPa - - - -

* Rain since midnight (hover to see other rain measurements)
** Current wind speed in m/s (hover to see current wind gust speed)